Time;durP1;ratioP1;P1;durP2;ratioP2;P2;SDS_P1;SDS_P2;PMS_P1;PMS_P2;Temp;Humidity;BMP_temperature;BMP_pressure;BME280_temperature;BME280_humidity;BME280_pressure;Samples;Min_cycle;Max_cycle;Signal;HPM_P1;HPM_P2
2024/01/07 00:00:07;;;;;;;10.07;9.60;;;22.00;51.40;;;;;;5030121;28;20477;-67
2024/01/07 00:02:34;;;;;;;10.13;9.73;;;22.00;51.60;;;;;;5031081;28;20472;-67
2024/01/07 00:05:01;;;;;;;10.00;9.20;;;21.90;51.60;;;;;;5030861;28;20513;-67
2024/01/07 00:07:28;;;;;;;10.33;9.73;;;21.90;51.60;;;;;;5027561;28;20569;-67
2024/01/07 00:09:56;;;;;;;11.33;10.70;;;21.80;51.60;;;;;;5028691;28;20476;-67
2024/01/07 00:12:24;;;;;;;10.73;10.13;;;21.80;51.70;;;;;;5034002;28;20924;-68
2024/01/07 00:14:51;;;;;;;13.70;12.90;;;21.80;51.80;;;;;;5034461;28;20441;-67
2024/01/07 00:17:18;;;;;;;11.17;10.33;;;21.80;51.90;;;;;;5031047;28;20883;-67
2024/01/07 00:19:45;;;;;;;9.37;8.83;;;21.80;51.90;;;;;;5034574;28;20872;-67
2024/01/07 00:22:12;;;;;;;10.40;9.80;;;21.70;51.90;;;;;;5034108;28;20491;-67
2024/01/07 00:24:39;;;;;;;10.20;9.60;;;21.70;52.40;;;;;;5034127;28;20445;-67
2024/01/07 00:27:08;;;;;;;9.90;9.40;;;21.70;51.80;;;;;;5031137;28;20464;-68
2024/01/07 00:29:35;;;;;;;8.80;8.50;;;21.70;51.80;;;;;;5034192;28;20449;-67
2024/01/07 00:32:02;;;;;;;9.00;8.60;;;21.60;51.80;;;;;;5033931;28;20483;-67
2024/01/07 00:34:29;;;;;;;9.40;9.00;;;21.60;52.00;;;;;;5034029;28;20473;-67
2024/01/07 00:36:56;;;;;;;9.97;9.47;;;21.60;52.20;;;;;;5031128;28;20533;-67
2024/01/07 00:39:23;;;;;;;9.50;9.10;;;21.50;51.90;;;;;;5033918;28;20948;-67
2024/01/07 00:41:50;;;;;;;10.00;9.43;;;21.50;52.00;;;;;;5033725;28;20480;-67
2024/01/07 00:44:18;;;;;;;9.23;8.93;;;21.50;51.90;;;;;;5033783;28;20469;-67
2024/01/07 00:46:45;;;;;;;9.37;8.97;;;21.50;52.00;;;;;;5031033;28;20488;-67
2024/01/07 00:49:12;;;;;;;10.07;9.67;;;21.50;51.90;;;;;;5033636;28;20521;-67
2024/01/07 00:51:38;;;;;;;9.67;9.27;;;21.50;51.80;;;;;;5033821;28;20472;-67
2024/01/07 00:54:05;;;;;;;9.07;8.70;;;21.50;51.90;;;;;;5033656;28;20473;-67
2024/01/07 00:56:32;;;;;;;9.37;8.97;;;21.40;51.90;;;;;;5031569;28;20493;-67
2024/01/07 00:58:59;;;;;;;10.03;9.60;;;21.40;51.90;;;;;;5033673;28;20484;-67
2024/01/07 01:01:27;;;;;;;9.37;8.97;;;21.40;52.00;;;;;;5033372;28;20476;-67
2024/01/07 01:03:54;;;;;;;9.93;9.40;;;21.40;52.10;;;;;;5033459;28;20479;-68
2024/01/07 01:06:21;;;;;;;9.90;9.50;;;21.40;52.10;;;;;;5029482;28;20559;-67
2024/01/07 01:08:48;;;;;;;9.23;8.83;;;21.30;52.00;;;;;;5033433;28;20476;-67
2024/01/07 01:11:15;;;;;;;10.23;9.80;;;21.30;52.00;;;;;;5033282;28;20480;-67
2024/01/07 01:13:42;;;;;;;10.00;9.60;;;21.30;52.00;;;;;;5031640;28;20568;-67
2024/01/07 01:16:08;;;;;;;9.50;8.90;;;21.30;52.10;;;;;;5033138;28;20477;-68
2024/01/07 01:18:37;;;;;;;9.53;9.23;;;21.30;52.00;;;;;;5033360;28;20479;-67
2024/01/07 01:21:04;;;;;;;9.77;9.17;;;21.30;52.00;;;;;;5033130;28;20868;-67
2024/01/07 01:23:31;;;;;;;10.23;9.63;;;21.30;52.20;;;;;;5026124;28;20433;-67
2024/01/07 01:25:58;;;;;;;9.97;9.57;;;21.30;52.20;;;;;;5032958;28;20484;-67
2024/01/07 01:28:25;;;;;;;9.20;8.90;;;21.20;52.30;;;;;;5032992;28;20469;-67
2024/01/07 01:30:52;;;;;;;8.60;8.30;;;21.20;52.20;;;;;;5033032;28;20476;-67
2024/01/07 01:33:19;;;;;;;9.40;9.10;;;21.20;52.30;;;;;;5026233;28;20520;-68
2024/01/07 01:35:47;;;;;;;10.00;9.60;;;21.20;52.20;;;;;;5032964;28;20969;-67
2024/01/07 01:38:14;;;;;;;10.50;9.60;;;21.20;52.20;;;;;;5032667;28;20453;-67
2024/01/07 01:40:41;;;;;;;9.40;9.00;;;21.20;52.20;;;;;;5032978;28;20480;-67
2024/01/07 01:43:08;;;;;;;9.90;9.50;;;21.20;52.20;;;;;;5026218;28;20469;-67
2024/01/07 01:45:34;;;;;;;9.30;8.97;;;21.20;52.10;;;;;;5032900;28;20477;-67
2024/01/07 01:48:02;;;;;;;9.50;9.10;;;21.20;52.10;;;;;;5032538;28;20492;-67
2024/01/07 01:50:28;;;;;;;9.17;8.77;;;21.10;52.10;;;;;;5032637;28;20873;-67
2024/01/07 01:52:57;;;;;;;9.23;8.77;;;21.20;52.10;;;;;;5026144;28;20504;-66
2024/01/07 01:55:24;;;;;;;9.53;9.00;;;21.10;52.10;;;;;;5032619;28;20452;-66
2024/01/07 01:57:52;;;;;;;9.03;8.73;;;21.10;52.20;;;;;;5032445;28;20527;-67
2024/01/07 02:00:20;;;;;;;8.70;8.40;;;21.10;52.20;;;;;;5016914;28;20473;-67
2024/01/07 02:02:47;;;;;;;9.23;8.83;;;21.10;52.20;;;;;;5026312;28;20788;-67
2024/01/07 02:05:14;;;;;;;9.80;9.47;;;21.10;52.30;;;;;;5032452;28;20484;-67
2024/01/07 02:07:41;;;;;;;9.13;8.73;;;21.00;52.10;;;;;;5032214;28;20465;-67
2024/01/07 02:10:10;;;;;;;9.53;9.20;;;21.10;52.20;;;;;;5032276;28;20449;-68
2024/01/07 02:12:36;;;;;;;9.70;9.33;;;21.10;52.30;;;;;;5026390;28;20564;-67
2024/01/07 02:15:04;;;;;;;9.27;8.97;;;21.00;52.20;;;;;;5032183;28;20476;-67
2024/01/07 02:17:31;;;;;;;9.87;9.50;;;21.00;52.20;;;;;;5031983;28;20496;-67
2024/01/07 02:19:58;;;;;;;9.33;8.93;;;21.00;52.20;;;;;;5032016;28;20465;-67
2024/01/07 02:22:25;;;;;;;9.13;8.73;;;21.00;52.30;;;;;;5026398;28;20472;-67
2024/01/07 02:24:53;;;;;;;9.13;8.73;;;21.00;52.20;;;;;;5032263;28;20480;-67
2024/01/07 02:27:20;;;;;;;10.23;9.77;;;21.00;52.20;;;;;;4999903;28;20591;-67
2024/01/07 02:29:47;;;;;;;10.20;9.80;;;21.00;52.10;;;;;;5030031;28;20449;-67
2024/01/07 02:32:14;;;;;;;10.10;9.70;;;21.00;52.20;;;;;;5031134;28;20866;-66
2024/01/07 02:34:40;;;;;;;9.10;8.77;;;21.00;52.20;;;;;;5031926;28;20469;-66
2024/01/07 02:37:07;;;;;;;9.27;8.87;;;21.00;52.20;;;;;;5031661;28;20465;-66
2024/01/07 02:39:34;;;;;;;10.07;9.67;;;20.90;52.30;;;;;;5031701;28;20481;-67
2024/01/07 02:42:03;;;;;;;9.13;8.77;;;20.90;52.20;;;;;;5028081;28;20523;-66
2024/01/07 02:44:29;;;;;;;10.03;9.63;;;20.90;52.30;;;;;;5031969;28;20441;-66
2024/01/07 02:46:56;;;;;;;8.60;8.30;;;20.90;52.20;;;;;;5031416;28;20560;-66
2024/01/07 02:49:23;;;;;;;9.63;9.23;;;20.90;52.20;;;;;;5031647;28;20468;-66
2024/01/07 02:51:50;;;;;;;9.50;9.03;;;20.90;52.20;;;;;;5029253;28;20473;-66
2024/01/07 02:54:17;;;;;;;9.63;9.23;;;20.90;52.20;;;;;;5031455;28;20512;-66
2024/01/07 02:56:44;;;;;;;10.13;9.77;;;20.90;52.20;;;;;;5031330;28;21007;-66
2024/01/07 02:59:12;;;;;;;9.07;8.77;;;20.90;52.20;;;;;;5026681;28;20473;-67
2024/01/07 03:01:40;;;;;;;9.57;9.17;;;20.90;52.30;;;;;;5026046;28;20944;-66
2024/01/07 03:04:07;;;;;;;9.20;8.90;;;20.90;52.10;;;;;;5031333;28;21053;-67
2024/01/07 03:06:34;;;;;;;8.30;8.10;;;20.90;52.10;;;;;;5031541;28;20468;-67
2024/01/07 03:09:01;;;;;;;8.90;8.50;;;20.80;52.10;;;;;;5029283;28;20480;-67
2024/01/07 03:11:28;;;;;;;9.73;9.30;;;20.90;52.20;;;;;;5031443;28;20477;-67
2024/01/07 03:13:55;;;;;;;8.90;8.60;;;20.90;52.10;;;;;;5031275;28;20480;-67
2024/01/07 03:16:24;;;;;;;9.27;8.77;;;20.90;52.10;;;;;;5031180;28;20592;-66
2024/01/07 03:18:51;;;;;;;9.37;9.07;;;20.80;52.10;;;;;;5024020;28;20527;-67
2024/01/07 03:21:19;;;;;;;8.50;8.13;;;20.90;52.20;;;;;;5031329;28;20442;-67
2024/01/07 03:23:46;;;;;;;8.70;8.40;;;20.90;52.10;;;;;;5031324;28;20441;-66
2024/01/07 03:26:13;;;;;;;9.73;9.43;;;20.80;51.90;;;;;;5031071;28;20437;-67
2024/01/07 03:28:40;;;;;;;9.80;9.40;;;20.90;52.10;;;;;;5024075;28;20544;-67
2024/01/07 03:31:10;;;;;;;8.97;8.67;;;20.80;51.90;;;;;;5031144;28;20475;-66
2024/01/07 03:33:38;;;;;;;10.03;9.70;;;20.90;52.10;;;;;;5031205;28;20511;-66
2024/01/07 03:36:09;;;;;;;10.87;10.47;;;20.80;51.90;;;;;;5026592;28;20473;-66
2024/01/07 03:38:36;;;;;;;8.77;8.47;;;20.80;51.90;;;;;;5031266;28;20445;-66
2024/01/07 03:41:03;;;;;;;9.50;9.10;;;20.90;51.90;;;;;;5031202;28;20864;-67
2024/01/07 03:43:30;;;;;;;10.10;9.70;;;20.80;51.90;;;;;;5031342;28;20472;-66
2024/01/07 03:45:57;;;;;;;9.53;9.13;;;20.80;51.90;;;;;;5027741;28;20481;-66
2024/01/07 03:48:24;;;;;;;9.80;9.40;;;20.80;52.00;;;;;;5034884;28;20473;-67
2024/01/07 03:50:52;;;;;;;9.17;8.77;;;20.80;51.80;;;;;;5034941;28;21134;-66
2024/01/07 03:53:19;;;;;;;9.47;9.07;;;20.80;51.80;;;;;;5034626;28;20498;-67
2024/01/07 03:55:46;;;;;;;10.23;9.83;;;20.80;51.90;;;;;;5033130;28;20479;-66
2024/01/07 03:58:13;;;;;;;9.37;8.77;;;20.70;51.80;;;;;;5025497;28;20492;-67
2024/01/07 04:00:40;;;;;;;9.63;9.30;;;20.70;51.70;;;;;;5034648;28;20526;-66
2024/01/07 04:03:07;;;;;;;9.70;9.10;;;20.80;51.70;;;;;;5034560;28;20469;-67
2024/01/07 04:05:34;;;;;;;10.00;9.60;;;20.70;51.70;;;;;;5034437;28;20495;-67
2024/01/07 04:08:02;;;;;;;9.80;9.50;;;20.70;51.70;;;;;;5031216;28;20475;-66
2024/01/07 04:10:29;;;;;;;9.50;9.20;;;20.70;51.60;;;;;;5034430;28;20963;-67
2024/01/07 04:12:56;;;;;;;9.37;9.07;;;20.70;51.60;;;;;;5034623;28;20485;-67
2024/01/07 04:15:25;;;;;;;9.67;9.20;;;20.70;51.70;;;;;;5018389;28;20473;-66
2024/01/07 04:17:52;;;;;;;9.43;9.13;;;20.70;51.70;;;;;;5050516;22;20522;-67
2024/01/07 04:20:19;;;;;;;9.67;9.37;;;20.70;51.70;;;;;;5034258;28;20881;-68
2024/01/07 04:22:45;;;;;;;9.27;8.97;;;20.70;51.70;;;;;;5034224;28;20540;-67
2024/01/07 04:25:14;;;;;;;9.50;9.20;;;20.70;51.60;;;;;;5034153;28;20469;-68
2024/01/07 04:27:41;;;;;;;9.37;8.97;;;20.70;51.60;;;;;;5021262;28;20494;-67
2024/01/07 04:30:09;;;;;;;9.33;9.03;;;20.70;51.50;;;;;;5014286;28;20949;-67
2024/01/07 04:32:35;;;;;;;10.27;9.87;;;20.70;51.60;;;;;;5014343;28;20529;-67
2024/01/07 04:35:02;;;;;;;9.13;8.83;;;20.70;51.50;;;;;;5014084;28;21000;-67
2024/01/07 04:37:29;;;;;;;9.17;8.87;;;20.70;51.50;;;;;;5011179;28;20886;-67
2024/01/07 04:39:56;;;;;;;9.90;9.60;;;20.60;51.50;;;;;;5014339;28;21039;-67
2024/01/07 04:42:24;;;;;;;9.50;9.20;;;20.60;51.50;;;;;;5013994;28;20437;-67
2024/01/07 04:44:51;;;;;;;9.60;9.23;;;20.70;51.60;;;;;;5006683;28;20474;-67
2024/01/07 04:47:26;;;;;;;9.70;9.30;;;20.60;51.60;;;;;;5013486;28;20468;-67
2024/01/07 04:49:53;;;;;;;9.97;9.57;;;20.70;51.60;;;;;;5014055;28;20476;-67
2024/01/07 04:52:20;;;;;;;9.70;9.30;;;20.70;51.60;;;;;;5013884;28;20434;-67
2024/01/07 04:54:47;;;;;;;10.20;9.60;;;20.60;51.40;;;;;;5001997;28;20484;-67
2024/01/07 04:57:14;;;;;;;9.87;9.53;;;20.60;51.40;;;;;;5001973;28;20498;-66
2024/01/07 04:59:43;;;;;;;10.33;9.63;;;20.60;51.50;;;;;;5013786;28;20446;-67
2024/01/07 05:02:09;;;;;;;10.20;9.70;;;20.70;51.60;;;;;;5013669;28;20889;-67
2024/01/07 05:04:37;;;;;;;9.60;9.30;;;20.70;51.50;;;;;;5008898;28;20882;-67
2024/01/07 05:07:04;;;;;;;10.20;9.83;;;20.70;51.50;;;;;;5010936;28;20996;-67
2024/01/07 05:09:32;;;;;;;10.10;9.73;;;20.70;51.50;;;;;;5013714;28;20945;-67
2024/01/07 05:11:59;;;;;;;9.00;8.70;;;20.70;51.40;;;;;;5013532;28;20478;-67
2024/01/07 05:14:26;;;;;;;9.77;9.37;;;20.70;51.40;;;;;;4994611;28;21072;-67
2024/01/07 05:16:55;;;;;;;9.77;9.30;;;20.70;51.40;;;;;;5009538;28;20505;-67
2024/01/07 05:19:22;;;;;;;9.43;9.10;;;20.70;51.50;;;;;;5013485;28;20525;-67
2024/01/07 05:21:49;;;;;;;8.93;8.63;;;20.70;51.40;;;;;;5013312;28;20877;-67
2024/01/07 05:24:16;;;;;;;9.97;9.57;;;20.70;51.30;;;;;;5004876;28;20874;-67
2024/01/07 05:26:44;;;;;;;9.37;9.03;;;20.70;51.40;;;;;;5013479;28;20500;-67
2024/01/07 05:29:11;;;;;;;10.10;9.70;;;20.70;51.40;;;;;;5013293;28;20443;-67
2024/01/07 05:31:38;;;;;;;9.90;9.50;;;20.70;51.40;;;;;;5013108;28;20968;-67
2024/01/07 05:34:06;;;;;;;9.50;9.20;;;20.70;51.40;;;;;;5008054;28;20478;-67
2024/01/07 05:36:33;;;;;;;10.23;9.83;;;20.70;51.40;;;;;;5013301;28;20554;-67
2024/01/07 05:39:00;;;;;;;9.13;8.83;;;20.70;51.50;;;;;;5013067;28;20496;-67
2024/01/07 05:41:27;;;;;;;9.50;9.20;;;20.70;51.40;;;;;;4997192;28;20474;-67
2024/01/07 05:43:54;;;;;;;9.70;9.40;;;20.70;51.40;;;;;;5008292;28;20472;-67
2024/01/07 05:46:21;;;;;;;10.70;10.00;;;20.70;51.40;;;;;;5013031;28;20474;-67
2024/01/07 05:48:49;;;;;;;9.50;9.10;;;20.70;51.50;;;;;;5012816;28;20496;-66
2024/01/07 05:51:17;;;;;;;9.73;9.30;;;20.70;51.40;;;;;;5010888;28;20451;-67
2024/01/07 05:53:45;;;;;;;10.40;10.10;;;20.70;51.40;;;;;;5012899;28;20517;-67
2024/01/07 05:56:12;;;;;;;9.73;9.43;;;20.70;51.30;;;;;;5012732;28;20473;-67
2024/01/07 05:58:39;;;;;;;9.70;9.33;;;20.70;51.30;;;;;;5012651;28;20490;-67
2024/01/07 06:01:07;;;;;;;10.10;9.70;;;20.70;51.30;;;;;;5011239;28;20884;-67
2024/01/07 06:03:34;;;;;;;10.00;9.50;;;20.70;51.40;;;;;;5012817;28;20481;-67
2024/01/07 06:06:01;;;;;;;10.17;9.87;;;20.70;51.30;;;;;;5012783;28;20925;-67
2024/01/07 06:08:29;;;;;;;10.17;9.77;;;20.70;51.30;;;;;;4996360;28;20821;-67
2024/01/07 06:10:56;;;;;;;10.10;9.80;;;20.70;51.20;;;;;;5012327;28;20488;-67
2024/01/07 06:13:23;;;;;;;10.40;9.80;;;20.70;51.30;;;;;;5011586;28;20466;-67
2024/01/07 06:15:50;;;;;;;9.33;9.03;;;20.70;51.20;;;;;;5012637;28;21071;-67
2024/01/07 06:18:17;;;;;;;9.57;9.23;;;20.70;51.10;;;;;;5012240;28;20474;-67
2024/01/07 06:20:44;;;;;;;9.60;9.30;;;20.70;51.20;;;;;;5012297;28;20480;-67
2024/01/07 06:23:11;;;;;;;9.37;9.07;;;20.70;51.10;;;;;;5004128;28;20470;-67
2024/01/07 06:25:39;;;;;;;11.00;10.40;;;20.70;51.10;;;;;;5012502;28;20446;-67
2024/01/07 06:28:06;;;;;;;10.47;10.07;;;20.70;51.10;;;;;;5012009;28;20494;-67
2024/01/07 06:30:33;;;;;;;10.40;10.00;;;20.70;51.10;;;;;;5012201;28;20477;-67
2024/01/07 06:33:00;;;;;;;9.90;9.40;;;20.70;51.00;;;;;;5003847;28;20500;-67
2024/01/07 06:35:27;;;;;;;9.73;9.43;;;20.70;51.00;;;;;;5012037;28;20520;-67
2024/01/07 06:37:54;;;;;;;9.13;8.83;;;20.70;51.00;;;;;;5011985;28;20461;-67
2024/01/07 06:40:22;;;;;;;10.03;9.63;;;20.70;50.90;;;;;;5011951;28;20805;-67
2024/01/07 06:42:50;;;;;;;9.80;9.40;;;20.70;50.90;;;;;;5003945;28;20541;-67
2024/01/07 06:45:18;;;;;;;11.30;10.90;;;20.70;50.90;;;;;;5012144;28;20466;-66
2024/01/07 06:47:46;;;;;;;9.30;8.87;;;20.70;50.80;;;;;;5011913;28;20474;-67
2024/01/07 06:50:13;;;;;;;9.67;9.23;;;20.70;50.80;;;;;;5011905;28;20453;-67
2024/01/07 06:52:40;;;;;;;10.50;10.10;;;20.70;50.80;;;;;;5003934;28;20473;-67
2024/01/07 06:55:08;;;;;;;11.00;10.50;;;20.70;50.80;;;;;;5011762;28;20478;-66
2024/01/07 06:57:35;;;;;;;10.20;9.80;;;20.70;50.80;;;;;;5011837;28;20909;-67
2024/01/07 07:00:04;;;;;;;11.00;10.00;;;20.70;50.80;;;;;;5003895;28;20468;-66
2024/01/07 07:02:31;;;;;;;9.87;9.40;;;20.70;50.90;;;;;;4996092;28;21151;-67
2024/01/07 07:04:58;;;;;;;10.20;9.80;;;20.70;50.80;;;;;;5011809;28;20473;-67
2024/01/07 07:07:24;;;;;;;10.40;9.90;;;20.70;50.80;;;;;;5011616;28;20462;-67
2024/01/07 07:09:52;;;;;;;10.17;9.80;;;20.70;50.80;;;;;;5008662;28;20480;-67
2024/01/07 07:12:19;;;;;;;10.40;9.70;;;20.70;50.80;;;;;;5010590;28;20446;-67
2024/01/07 07:14:46;;;;;;;10.70;10.27;;;20.70;50.80;;;;;;5011660;28;20568;-67
2024/01/07 07:17:14;;;;;;;10.27;9.87;;;20.70;50.80;;;;;;5011373;28;20470;-67
2024/01/07 07:19:41;;;;;;;10.27;9.77;;;20.70;50.70;;;;;;5010278;28;20446;-67
2024/01/07 07:22:08;;;;;;;10.50;10.00;;;20.70;50.70;;;;;;5011909;28;20473;-67
2024/01/07 07:24:35;;;;;;;10.23;9.83;;;20.70;50.70;;;;;;5015623;28;20469;-67
2024/01/07 07:27:02;;;;;;;9.90;9.50;;;20.70;50.70;;;;;;5015481;28;20879;-67
2024/01/07 07:29:29;;;;;;;10.50;9.90;;;20.70;50.60;;;;;;5013508;28;20438;-67
2024/01/07 07:31:56;;;;;;;10.43;9.93;;;20.70;50.70;;;;;;5015422;28;20474;-67
2024/01/07 07:34:24;;;;;;;10.60;10.20;;;20.70;50.60;;;;;;5015281;28;20482;-67
2024/01/07 07:36:51;;;;;;;10.27;9.70;;;20.70;50.50;;;;;;5015207;28;20465;-67
2024/01/07 07:39:18;;;;;;;10.53;10.13;;;20.70;50.50;;;;;;5013788;28;20456;-67
2024/01/07 07:41:45;;;;;;;11.00;10.53;;;20.70;50.50;;;;;;5015338;28;20446;-67
2024/01/07 07:44:12;;;;;;;10.03;9.70;;;20.70;50.50;;;;;;5015114;28;20488;-67
2024/01/07 07:46:38;;;;;;;10.57;10.20;;;20.70;50.50;;;;;;5015261;28;20883;-67
2024/01/07 07:49:05;;;;;;;11.90;11.40;;;20.70;50.50;;;;;;5013962;28;20448;-66
2024/01/07 07:51:33;;;;;;;11.10;10.50;;;20.70;50.50;;;;;;4999260;28;20473;-67
2024/01/07 07:54:00;;;;;;;9.83;9.43;;;20.70;50.60;;;;;;5014962;28;20476;-67
2024/01/07 07:56:28;;;;;;;11.20;10.70;;;20.70;50.50;;;;;;5014871;28;20473;-67
2024/01/07 07:58:55;;;;;;;10.70;10.27;;;20.70;50.50;;;;;;5007249;28;20562;-67
2024/01/07 08:01:22;;;;;;;11.00;10.50;;;20.70;50.60;;;;;;5013749;28;20517;-66
2024/01/07 08:03:49;;;;;;;11.13;10.60;;;20.70;50.50;;;;;;5014898;28;21011;-67
2024/01/07 08:06:16;;;;;;;10.90;10.50;;;20.70;50.40;;;;;;5014793;28;21124;-67
2024/01/07 08:08:45;;;;;;;11.07;10.57;;;20.70;50.40;;;;;;5002860;28;20908;-67
2024/01/07 08:11:12;;;;;;;11.80;11.30;;;20.70;50.40;;;;;;5009430;28;20450;-67
2024/01/07 08:13:38;;;;;;;11.50;11.00;;;20.70;50.50;;;;;;5014571;28;20481;-67
2024/01/07 08:16:06;;;;;;;11.20;10.70;;;20.60;50.40;;;;;;5014558;28;20516;-67
2024/01/07 08:18:33;;;;;;;11.10;10.60;;;20.70;50.50;;;;;;5001715;28;20497;-69
2024/01/07 08:21:00;;;;;;;11.50;11.00;;;20.70;50.40;;;;;;5010399;28;21028;-64
2024/01/07 08:23:27;;;;;;;10.60;10.10;;;20.70;50.40;;;;;;5014623;28;20439;-64
2024/01/07 08:25:55;;;;;;;11.10;10.67;;;20.70;50.40;;;;;;5014481;28;20466;-64
2024/01/07 08:28:22;;;;;;;13.40;12.90;;;20.70;50.50;;;;;;5009305;28;20913;-64
2024/01/07 08:30:51;;;;;;;11.20;10.80;;;20.70;50.50;;;;;;5014306;28;20477;-64
2024/01/07 08:33:18;;;;;;;11.70;11.23;;;20.70;50.50;;;;;;5014173;28;20528;-64
2024/01/07 08:35:45;;;;;;;10.33;9.93;;;20.70;50.50;;;;;;5014194;28;20556;-64
2024/01/07 08:38:12;;;;;;;11.00;10.60;;;20.70;50.40;;;;;;5004194;28;20541;-64
2024/01/07 08:40:40;;;;;;;11.13;10.63;;;20.70;50.40;;;;;;5014329;28;20484;-64
2024/01/07 08:43:08;;;;;;;11.23;10.80;;;20.70;50.40;;;;;;5014224;28;20870;-64
2024/01/07 08:45:35;;;;;;;10.87;10.43;;;20.70;50.40;;;;;;5014485;28;20477;-65
2024/01/07 08:48:02;;;;;;;12.10;11.50;;;20.70;50.40;;;;;;5008595;28;20502;-63
2024/01/07 08:50:29;;;;;;;10.73;10.27;;;20.70;50.30;;;;;;5014070;28;20466;-65
2024/01/07 08:52:56;;;;;;;11.67;11.17;;;20.70;50.30;;;;;;5014037;28;20508;-64
2024/01/07 08:55:23;;;;;;;11.63;11.13;;;20.70;50.30;;;;;;5013920;28;20823;-63
2024/01/07 08:57:51;;;;;;;11.13;10.53;;;20.70;50.20;;;;;;5008556;28;20504;-64
2024/01/07 09:00:21;;;;;;;11.57;10.90;;;20.70;50.20;;;;;;5013814;28;20457;-65
2024/01/07 09:02:48;;;;;;;11.40;10.87;;;20.70;50.20;;;;;;5013757;28;20457;-64
2024/01/07 09:05:15;;;;;;;12.43;11.83;;;20.70;50.10;;;;;;5013860;28;20448;-64
2024/01/07 09:07:41;;;;;;;11.73;11.13;;;20.70;50.10;;;;;;5008938;28;20466;-64
2024/01/07 09:10:10;;;;;;;11.30;10.90;;;20.70;50.00;;;;;;4992699;28;20468;-64
2024/01/07 09:12:38;;;;;;;11.43;11.03;;;20.70;50.00;;;;;;4996356;28;20446;-64
2024/01/07 09:15:07;;;;;;;11.47;10.97;;;20.70;49.90;;;;;;5014510;28;20477;-64
2024/01/07 09:17:37;;;;;;;12.37;11.77;;;20.70;49.90;;;;;;4995808;28;20837;-64
2024/01/07 09:20:07;;;;;;;12.20;11.50;;;20.70;49.90;;;;;;5008627;28;20473;-64
2024/01/07 09:22:34;;;;;;;11.73;11.13;;;20.70;49.90;;;;;;5007555;28;20972;-64
2024/01/07 09:25:02;;;;;;;11.40;10.90;;;20.70;49.80;;;;;;5014319;28;20469;-67
2024/01/07 09:27:29;;;;;;;11.33;10.83;;;20.80;49.90;;;;;;5011765;28;20462;-69
2024/01/07 09:29:56;;;;;;;11.87;11.27;;;20.80;51.50;;;;;;5008542;28;20477;-68
2024/01/07 09:32:23;;;;;;;10.87;10.47;;;20.90;51.20;;;;;;5013263;28;20442;-69
2024/01/07 09:34:51;;;;;;;12.43;11.90;;;21.00;50.90;;;;;;5013386;28;20608;-64
2024/01/07 09:37:18;;;;;;;11.43;11.03;;;21.10;50.80;;;;;;5013099;28;20549;-65
2024/01/07 09:39:45;;;;;;;11.23;10.77;;;21.10;50.80;;;;;;5003185;28;20477;-66
2024/01/07 09:42:15;;;;;;;10.82;10.23;;;21.20;50.80;;;;;;5012900;28;20467;-67
2024/01/07 09:44:42;;;;;;;12.47;11.57;;;21.20;50.50;;;;;;5012277;28;20697;-67
2024/01/07 09:47:12;;;;;;;12.07;11.50;;;21.20;50.70;;;;;;5013435;28;20505;-66
2024/01/07 09:49:39;;;;;;;11.67;11.27;;;21.20;50.80;;;;;;4983542;28;20937;-67
2024/01/07 09:52:10;;;;;;;12.07;11.57;;;21.20;50.20;;;;;;5014013;28;21012;-67
2024/01/07 09:54:37;;;;;;;13.53;12.73;;;21.20;50.10;;;;;;4997794;28;20474;-68
2024/01/07 09:57:07;;;;;;;12.40;11.40;;;21.20;50.00;;;;;;5012989;28;20466;-67
2024/01/07 09:59:34;;;;;;;11.57;11.07;;;21.20;50.00;;;;;;5008252;28;20798;-66
2024/01/07 10:02:02;;;;;;;11.60;11.20;;;21.20;49.90;;;;;;5012869;28;20942;-66
2024/01/07 10:04:29;;;;;;;11.83;11.43;;;21.20;50.40;;;;;;5013056;28;20473;-67
2024/01/07 10:06:56;;;;;;;11.97;11.47;;;21.20;49.70;;;;;;5013027;28;20497;-69
2024/01/07 10:09:27;;;;;;;11.97;11.43;;;21.20;49.70;;;;;;5008595;28;20474;-69
2024/01/07 10:11:54;;;;;;;12.77;12.00;;;21.20;49.60;;;;;;5012963;28;20449;-70
2024/01/07 10:14:22;;;;;;;11.60;11.10;;;21.20;49.60;;;;;;5012467;28;20449;-69
2024/01/07 10:19:25;;;;;;;11.80;11.30;;;21.30;49.50;;;;;;5021119;28;20473;-72
2024/01/07 10:22:01;;;;;;;13.10;12.33;;;21.30;49.50;;;;;;5023907;28;20997;-71
2024/01/07 10:24:38;;;;;;;12.43;11.73;;;21.30;49.30;;;;;;5021571;28;20456;-72
2024/01/07 10:27:05;;;;;;;11.70;11.13;;;21.30;49.30;;;;;;5019796;28;20605;-71
2024/01/07 10:29:32;;;;;;;12.17;11.77;;;21.30;49.20;;;;;;5023252;28;20560;-69
2024/01/07 10:32:02;;;;;;;11.40;11.00;;;21.30;49.20;;;;;;5023710;28;20472;-69
2024/01/07 10:34:31;;;;;;;11.07;10.67;;;21.40;49.20;;;;;;5021183;28;20445;-67
2024/01/07 10:37:00;;;;;;;12.63;11.93;;;21.40;49.10;;;;;;5019974;28;20510;-73
2024/01/07 10:39:27;;;;;;;11.37;10.97;;;21.40;49.10;;;;;;5022085;28;20448;-71
2024/01/07 10:41:58;;;;;;;12.10;11.70;;;21.40;49.60;;;;;;5023524;28;20488;-73
2024/01/07 10:44:33;;;;;;;11.20;10.80;;;21.50;49.80;;;;;;5021902;28;20484;-71
2024/01/07 10:47:01;;;;;;;11.80;11.30;;;21.60;49.80;;;;;;5019146;28;20925;-69
2024/01/07 10:49:31;;;;;;;12.57;11.97;;;21.70;49.80;;;;;;5022002;28;20945;-69
2024/01/07 10:52:05;;;;;;;11.73;11.33;;;21.70;49.80;;;;;;5023240;28;20484;-69
2024/01/07 10:54:35;;;;;;;11.60;11.10;;;21.80;49.80;;;;;;5020712;28;20444;-69
2024/01/07 10:57:10;;;;;;;12.67;12.07;;;21.80;49.70;;;;;;5017855;28;20481;-68
2024/01/07 10:59:38;;;;;;;11.50;11.10;;;21.80;49.70;;;;;;5023001;28;20468;-68
2024/01/07 11:02:05;;;;;;;11.13;10.73;;;21.90;49.70;;;;;;5023129;28;20449;-69
2024/01/07 11:04:38;;;;;;;11.23;10.90;;;21.90;49.70;;;;;;5020951;28;20474;-66
2024/01/07 11:07:16;;;;;;;11.37;10.97;;;21.90;49.60;;;;;;5018312;28;20523;-67
2024/01/07 11:09:55;;;;;;;11.47;11.10;;;21.90;49.60;;;;;;5012363;28;20476;-68
2024/01/07 11:12:24;;;;;;;12.10;11.60;;;22.00;49.60;;;;;;5020731;28;20479;-69
2024/01/07 11:14:53;;;;;;;11.57;11.10;;;22.00;49.60;;;;;;5023444;28;20469;-69
2024/01/07 11:17:46;;;;;;;12.13;11.53;;;22.00;49.50;;;;;;5015225;28;20466;-67
2024/01/07 11:20:21;;;;;;;12.30;11.80;;;22.00;48.60;;;;;;5023105;28;20437;-73
2024/01/07 11:22:48;;;;;;;11.70;11.30;;;21.90;48.20;;;;;;5012891;28;20977;-67
2024/01/07 11:25:31;;;;;;;11.60;11.20;;;22.00;49.00;;;;;;5016606;28;20470;-68
2024/01/07 11:28:02;;;;;;;11.27;10.87;;;22.00;49.60;;;;;;5022997;28;20511;-68
2024/01/07 11:30:29;;;;;;;12.30;11.70;;;22.10;49.50;;;;;;5020968;28;20499;-68
2024/01/07 11:33:00;;;;;;;12.30;11.80;;;22.10;49.40;;;;;;5019626;28;20521;-68
2024/01/07 11:35:54;;;;;;;12.20;11.70;;;22.10;49.40;;;;;;5020839;28;20478;-68
2024/01/07 11:38:22;;;;;;;12.57;12.00;;;22.10;49.40;;;;;;5022031;28;21008;-69
2024/01/07 11:40:52;;;;;;;11.60;11.07;;;22.10;48.70;;;;;;5019389;28;20445;-68
2024/01/07 11:43:20;;;;;;;10.10;9.70;;;22.00;47.90;;;;;;5019075;28;20888;-65
2024/01/07 11:45:47;;;;;;;12.70;12.20;;;21.90;47.90;;;;;;5019045;28;20250;-68
2024/01/07 11:48:15;;;;;;;13.80;13.00;;;21.90;47.80;;;;;;5019672;28;20486;-70
2024/01/07 11:50:42;;;;;;;13.23;12.63;;;21.90;50.20;;;;;;5011578;28;20478;-68
2024/01/07 11:53:10;;;;;;;14.50;13.70;;;22.00;49.40;;;;;;5019762;28;20837;-68
2024/01/07 11:55:37;;;;;;;13.80;13.20;;;22.00;49.50;;;;;;5014640;28;20481;-67
2024/01/07 11:58:04;;;;;;;14.30;13.50;;;22.00;49.90;;;;;;5019391;28;20504;-71
2024/01/07 12:00:34;;;;;;;12.77;12.17;;;22.10;50.00;;;;;;5017229;28;20478;-72
2024/01/07 12:03:01;;;;;;;13.20;12.50;;;22.10;49.90;;;;;;5021499;28;20473;-65
2024/01/07 12:05:28;;;;;;;13.27;12.77;;;22.10;49.90;;;;;;5021009;28;20448;-65
2024/01/07 12:07:56;;;;;;;13.70;13.10;;;22.20;50.00;;;;;;5020221;28;20498;-66
2024/01/07 12:10:24;;;;;;;13.27;12.67;;;22.30;49.80;;;;;;5018830;28;20456;-66
2024/01/07 12:12:51;;;;;;;13.70;13.10;;;22.30;49.50;;;;;;5025734;28;20477;-65
2024/01/07 12:15:20;;;;;;;13.10;12.40;;;22.40;49.40;;;;;;5025877;28;20928;-67
2024/01/07 12:17:58;;;;;;;13.50;12.80;;;22.40;48.40;;;;;;5022689;28;20461;-64
2024/01/07 12:20:26;;;;;;;13.00;12.50;;;22.40;48.20;;;;;;5016306;28;20825;-65
2024/01/07 12:22:53;;;;;;;13.93;13.33;;;22.50;48.30;;;;;;5026170;28;20473;-66
2024/01/07 12:25:24;;;;;;;13.03;12.43;;;22.50;48.20;;;;;;5025702;28;20445;-66
2024/01/07 12:27:53;;;;;;;12.30;11.60;;;22.50;48.10;;;;;;5021363;28;20549;-65
2024/01/07 12:30:25;;;;;;;12.40;12.00;;;22.50;48.00;;;;;;5019842;28;20905;-69
2024/01/07 12:32:53;;;;;;;12.57;12.03;;;22.50;48.60;;;;;;5026105;28;20437;-69
2024/01/07 12:35:21;;;;;;;13.17;12.60;;;22.50;48.70;;;;;;5025389;28;20445;-70
2024/01/07 12:37:50;;;;;;;12.87;12.10;;;22.40;48.50;;;;;;5022339;28;20490;-66
2024/01/07 12:40:17;;;;;;;12.63;12.07;;;22.40;48.40;;;;;;5019244;28;20439;-69